Terminal Aerodrome Forecast
Issued by NWS Jackson, MS

Home | Current Version | Previous Version | Text Only | Print | Product List | Glossary On
Versions: 1 2 3 4 5 6 7 8 9 10 11 12 13 14 15 16 17 18 19 20 21 22 23 24
000
FTUS44 KMEG 211100
TAFTUP
TAF
KTUP 211120Z 2112/2212 00000KT P6SM SCT250
     FM211500 25006KT P6SM SCT040 SCT250
     FM212100 32010G18KT P6SM VCTS BKN050CB BKN250
     FM220100 02004KT P6SM SCT040=

USA.gov is the U.S. government's official web portal to all federal, state and local government web resources and services.